x

West Washington - 300nm West Of Aberdeen, Wa (46005) Wave Buoy

11:50am - Fri 30th Jan 2015 All times are UTC.

  • Sig Wave height 6.9ft
  • Swell Direction
  • Peak Period 14s
  • Average Period 9s
  • Wind
    9mph, 11mph gusts
  • Sea Temp 53°f
  • Air Temp 53°f
  • Sea Pressure 1025.9mb

More Historic Weather Station data

Upgrade to MSW Pro to gain access to the past 30 days of data for over 8000 Wavebouys and Weather Stations around the globe.

Join Pro

Comparision Forecast

View Surf forecast
   
Fri 01/30 11:50am 7ft 14s 9s 9 11 mph 1025.9mb 53f 53f
10:50am 6ft 15s 9s 9 11 mph 1025.7mb 53f 53f
9:50am 6ft 14s 8s 11 13 mph 1025.4mb 53f 53f
8:50am 6ft 14s 9s 11 13 mph 1025.8mb 53f 53f
7:50am 6ft 15s 9s 11 13 mph 1025.9mb 53f 53f
6:50am 7ft 15s 9s 9 11 mph 1025.8mb 53f 53f
5:50am 6ft 16s 9s 11
mph
1026mb 53f 53f
4:50am 6.5ft 16s 9s 11 13 mph 1025.7mb 53f 53f
3:50am 6.5ft 15s 9s 13
mph
1025.5mb 53f 52f
2:50am 6.5ft 15s 8s 11 16 mph 1025.2mb 53f 53f
1:50am 7ft 15s 8s 11 13 mph 1025.1mb 53f 52f
12:50am 7.5ft 16s 8s 13 16 mph 1025mb 53f 53f
Thu 01/29 11:50pm 7ft 15s 8s 11 16 mph 1024.9mb 53f 53f
10:50pm 8ft 16s 9s 13 16 mph 1024.7mb 53f 53f
9:50pm 8ft 15s  -  13 16 mph 1025.2mb 53f 52f
8:50pm 7ft 16s 8s 13 16 mph 1025.6mb 53f 52f
7:50pm 8ft 15s 9s 11 13 mph 1026mb 53f 53f
5:50pm 7.5ft 16s 9s 11 13 mph 1025.8mb 53f 52f
4:50pm 7ft 16s 9s 9 11 mph 1025.6mb 53f 52f
3:50pm 7.5ft 16s 9s 7 9 mph 1025.3mb 53f 52f
2:50pm 7ft 16s 9s 7 9 mph 1025.1mb 53f 52f
1:50pm 7ft 16s 8s 9 13 mph 1025.3mb 53f 52f
12:50pm 7ft 16s 8s 9
mph
1025.2mb 53f 52f
11:50am 8ft 17s 9s 9 11 mph 1025.3mb 53f 52f
10:50am 7ft 16s 8s 9 13 mph 1025.5mb 53f 52f
9:50am 7ft 17s 8s 9 11 mph 1025.2mb 53f 51f
8:50am 8ft 17s 9s 9 11 mph 1025.2mb 53f 51f
7:50am 7ft 17s 8s 7 9 mph 1025.2mb 53f 51f
6:50am 8ft 11s 9s 7 9 mph 1024.9mb 53f 51f
5:50am 7ft 11s 8s 7 9 mph 1024.9mb 53f 51f
4:50am 7.5ft 17s 9s 7 9 mph 1024.8mb 53f 51f
3:50am 6.5ft 17s 8s 4 7 mph 1024.7mb 53f 51f
2:50am 7ft 17s 8s 7 9 mph 1024.7mb 53f 51f
1:50am 6.5ft 17s 8s 9 11 mph 1024.4mb 53f 51f
12:50am 6ft 19s 7s 11 13 mph 1023.8mb 53f 51f
Wed 01/28 11:50pm 6ft 19s 8s 13 16 mph 1023.7mb 53f 51f
10:50pm 6ft 19s 8s 13 16 mph 1023.9mb 53f 51f
9:50pm 5ft 19s 7s 11 13 mph 1024.2mb 53f 51f
8:50pm 5.5ft 19s 8s 13 16 mph 1024.5mb 53f 51f
7:50pm 5ft 19s 7s 11 13 mph 1025mb 53f 51f
6:50pm 4.5ft 19s 7s 11 16 mph 1025mb 53f 51f
5:50pm 5ft 19s 7s 11 16 mph 1024.6mb 53f 51f
4:50pm 5ft 12s 7s 11 13 mph 1024.4mb 53f 52f
3:50pm 5ft 11s 7s 13 18 mph 1024.1mb 53f 52f
2:50pm 5ft 12s 7s 11 16 mph 1024.2mb 53f 51f
1:50pm 5.5ft 19s 7s 9 16 mph 1024.3mb 53f 52f
12:50pm 6ft 9s 7s 13 18 mph 1024.1mb 53f 51f
11:50am 6ft 12s 7s 16 18 mph 1023.9mb 53f 52f
10:50am 6ft 10s 7s 13 18 mph 1024mb 53f 52f
9:50am 6ft 9s 7s 13 16 mph 1023.5mb 53f 52f
8:50am 6ft 12s 8s 16 18 mph 1023.2mb 53f 52f
7:50am 6ft 11s 8s 13 16 mph 1023.2mb 53f 52f
6:50am 6.5ft 11s 8s 11 13 mph 1023.1mb 53f 52f
5:50am 6.5ft 11s 8s 9 11 mph 1023.4mb 53f 52f
4:50am 7ft 11s 9s 2 4 mph 1023.8mb 53f 52f
3:50am 6ft 12s 8s 4 7 mph 1023.5mb 53f 52f
2:50am 6ft 12s 8s 4 9 mph 1022.8mb 54f 52f
1:50am 6.5ft 13s 8s 4 7 mph 1022.4mb 54f 52f
12:50am 7.5ft 10s 8s 2 4 mph 1021.9mb 54f 52f
Tue 01/27 11:50pm 8ft 13s 8s 2 4 mph 1021.8mb 54f 53f
10:50pm 7.5ft 11s 8s 2 4 mph 1021.7mb 54f 52f
9:50pm 7ft 13s 8s 2 4 mph 1021.7mb 54f 52f
8:50pm 7ft 11s 8s 4 7 mph 1021.8mb 53f 52f
7:50pm 8ft 13s 8s 4 7 mph 1022mb 53f 52f
6:50pm 9ft 14s 9s 4 7 mph 1021.4mb 53f 52f
5:50pm 8.5ft 12s 8s 7 9 mph 1020.9mb 53f 51f
4:50pm 8ft 13s 8s 9 11 mph 1020.2mb 53f 51f
3:50pm 9ft 13s 8s 9 11 mph 1019.7mb 53f 51f
2:50pm 9ft 14s 8s 7 16 mph 1019.1mb 53f 51f
1:50pm 9ft 13s 8s 9 11 mph 1018.6mb 53f 51f
12:50pm 8ft 9s 7s 9 13 mph 1018mb 53f 51f
11:50am 8.5ft 13s 7s 11 13 mph 1017.8mb 53f 51f
10:50am 9.5ft 8s 7s 9 11 mph 1017.4mb 53f 51f
9:50am 9ft 9s 7s 11 16 mph 1016.9mb 53f 51f
8:50am 10ft 14s 7s 11 16 mph 1016.5mb 53f 51f
7:50am 10.5ft 8s 8s 4 7 mph 1016.3mb 53f 50f
6:50am 9.5ft 14s 8s 16 20 mph 1015.6mb 53f 51f
5:50am 9ft 13s 8s 13 20 mph 1015mb 53f 51f
4:50am 9.5ft 14s 7s 18 20 mph 1013.8mb 53f 51f
3:50am 8ft 15s 7s 20 25 mph 1012.8mb 53f 51f
2:50am 9ft 13s 7s 20 27 mph 1011.8mb 53f 51f
1:50am 8.5ft 14s 7s 20 27 mph 1011mb 53f 51f
12:50am 8ft 13s 7s 20 25 mph 1010.5mb 54f 51f
Mon 01/26 11:50pm 8ft 13s 7s 18 22 mph 1010.1mb 54f 51f
10:50pm 8ft 11s 7s 22 27 mph 1009mb 54f 51f
9:50pm 8ft 15s 7s 20 25 mph 1008.6mb 54f 53f
8:50pm 8.5ft 13s 8s 20 22 mph 1008.6mb 54f 55f
7:50pm 8.5ft 14s 7s 16 18 mph 1008.6mb 53f 55f
6:50pm 8.5ft 13s 7s 18 22 mph 1008mb 54f 54f
5:50pm 9ft 12s 7s 20 22 mph 1007.4mb 53f 54f
4:50pm 9ft 14s 8s 18 22 mph 1007.5mb 53f 53f
3:50pm 9ft 12s 8s 18 20 mph 1007.2mb 53f 53f
2:50pm 9ft 12s 8s 18 20 mph 1006.8mb 53f 53f
1:50pm 9.5ft 11s 8s 16 18 mph 1007.1mb 53f 53f